Time;durP1;ratioP1;P1;durP2;ratioP2;P2;SDS_P1;SDS_P2;PMS_P1;PMS_P2;Temp;Humidity;BMP_temperature;BMP_pressure;BME280_temperature;BME280_humidity;BME280_pressure;Samples;Min_cycle;Max_cycle;Signal;HPM_P1;HPM_P2
2022/11/09 00:00:48;;;;;;;9.18;6.68;;;;;;;10.52;93.13;99566.66;4977727;28;20551;-90
2022/11/09 00:03:15;;;;;;;10.55;6.50;;;;;;;10.53;93.14;99561.22;4992563;28;20096;-91
2022/11/09 00:05:43;;;;;;;11.63;7.00;;;;;;;10.51;93.08;99567.66;4993600;28;20095;-90
2022/11/09 00:08:11;;;;;;;13.63;8.23;;;;;;;10.54;92.82;99559.41;4994491;28;20103;-91
2022/11/09 00:10:37;;;;;;;12.50;9.20;;;;;;;10.52;92.80;99559.53;4995995;28;20041;-91
2022/11/09 00:13:04;;;;;;;11.95;8.50;;;;;;;10.54;92.98;99568.19;4979008;28;20053;-92
2022/11/09 00:15:31;;;;;;;14.95;8.80;;;;;;;10.56;93.03;99557.44;4979351;28;20055;-91
2022/11/09 00:18:03;;;;;;;12.95;8.30;;;;;;;10.54;92.71;99565.53;4979771;28;20046;-92
2022/11/09 00:20:30;;;;;;;15.05;8.68;;;;;;;10.53;93.44;99558.56;4978322;28;20044;-92
2022/11/09 00:22:57;;;;;;;16.60;7.55;;;;;;;10.53;92.93;99558.56;4993495;28;20056;-91
2022/11/09 00:25:24;;;;;;;11.73;8.15;;;;;;;10.54;93.22;99562.88;4976815;28;20122;-89
2022/11/09 00:27:51;;;;;;;13.77;9.02;;;;;;;10.57;92.94;99570.56;4985384;28;20042;-91
2022/11/09 00:30:18;;;;;;;16.95;8.75;;;;;;;10.57;93.02;99569.72;4981184;28;20126;-89
2022/11/09 00:32:47;;;;;;;13.93;8.27;;;;;;;10.58;93.13;99584.66;5000032;28;20042;-91
2022/11/09 00:35:14;;;;;;;17.15;11.10;;;;;;;10.61;92.96;99584.41;4975401;28;20064;-91
2022/11/09 00:37:41;;;;;;;15.32;8.90;;;;;;;10.58;93.25;99588.19;4974734;28;20046;-92
2022/11/09 00:40:09;;;;;;;13.30;8.60;;;;;;;10.58;93.29;99582.00;4971825;28;20552;-91
2022/11/09 00:42:36;;;;;;;14.95;9.65;;;;;;;10.59;93.41;99586.38;4987256;28;20065;-91
2022/11/09 00:45:03;;;;;;;19.77;10.05;;;;;;;10.58;93.56;99585.53;5010338;28;20419;-90
2022/11/09 00:47:32;;;;;;;13.45;8.63;;;;;;;10.57;93.56;99583.84;4967831;28;20129;-91
2022/11/09 00:49:58;;;;;;;16.08;9.30;;;;;;;10.60;93.71;99572.09;4982330;28;20050;-91
2022/11/09 00:52:25;;;;;;;13.75;9.07;;;;;;;10.58;93.68;99582.88;4993409;28;20046;-91
2022/11/09 00:54:52;;;;;;;14.40;9.20;;;;;;;10.60;93.63;99590.69;4974453;28;20046;-91
2022/11/09 00:57:19;;;;;;;14.23;8.95;;;;;;;10.63;93.37;99590.38;4983625;28;20045;-92
2022/11/09 00:59:45;;;;;;;15.65;8.48;;;;;;;10.67;93.29;99586.47;4976603;28;20050;-90
2022/11/09 01:02:12;;;;;;;12.25;8.10;;;;;;;10.65;93.58;99602.53;4997808;28;20049;-91
2022/11/09 01:04:39;;;;;;;20.27;10.07;;;;;;;10.67;93.93;99610.38;4987399;28;20045;-91
2022/11/09 01:07:07;;;;;;;17.15;9.43;;;;;;;10.65;94.16;99612.34;5008063;28;20052;-90
2022/11/09 01:09:34;;;;;;;18.00;9.00;;;;;;;10.67;94.41;99614.84;4977687;28;20140;-91
2022/11/09 01:12:00;;;;;;;13.18;8.95;;;;;;;10.69;94.59;99615.56;4990650;28;20126;-90
2022/11/09 01:14:27;;;;;;;16.80;9.70;;;;;;;10.69;94.40;99619.06;4977687;28;20045;-90
2022/11/09 01:16:54;;;;;;;16.30;8.95;;;;;;;10.68;94.69;99627.16;4994869;28;20049;-89
2022/11/09 01:19:20;;;;;;;16.02;10.10;;;;;;;10.70;94.50;99627.84;4993358;28;20521;-89
2022/11/09 01:21:47;;;;;;;12.00;9.02;;;;;;;10.68;94.77;99621.84;4985481;28;20042;-90
2022/11/09 01:24:14;;;;;;;14.40;10.27;;;;;;;10.69;94.76;99616.41;5007145;28;20512;-91
2022/11/09 01:26:41;;;;;;;16.63;9.65;;;;;;;10.67;95.37;99617.50;4975360;28;20038;-89
2022/11/09 01:29:07;;;;;;;15.23;8.90;;;;;;;10.72;95.00;99626.72;5008619;28;20051;-90
2022/11/09 01:31:34;;;;;;;13.25;9.18;;;;;;;10.69;95.29;99629.66;5010928;28;20049;-90
2022/11/09 01:34:01;;;;;;;17.77;9.77;;;;;;;10.71;95.29;99622.41;5013084;28;20041;-90
2022/11/09 01:36:30;;;;;;;15.75;8.85;;;;;;;10.73;95.31;99633.69;4992493;28;20038;-90
2022/11/09 01:38:59;;;;;;;17.60;9.45;;;;;;;10.72;95.68;99626.72;4974279;28;20046;-90
2022/11/09 01:41:27;;;;;;;15.70;9.50;;;;;;;10.74;95.69;99621.28;4991069;28;20045;-90
2022/11/09 01:44:20;;;;;;;13.75;9.88;;;;;;;10.60;97.21;99620.72;4977237;28;20076;-89
2022/11/09 01:46:56;;;;;;;15.52;9.88;;;;;;;10.72;96.15;99623.25;4935141;28;20047;-90
2022/11/09 01:49:42;;;;;;;14.15;8.48;;;;;;;10.70;96.20;99626.03;4972676;28;20396;-90
2022/11/09 01:52:21;;;;;;;11.88;8.50;;;;;;;10.72;96.26;99626.72;4964890;28;20053;-87
2022/11/09 01:54:52;;;;;;;16.05;8.90;;;;;;;10.73;96.18;99617.75;4991650;28;20404;-91
2022/11/09 01:57:23;;;;;;;15.27;8.70;;;;;;;10.75;96.40;99621.13;4958869;28;20103;-90
2022/11/09 01:59:55;;;;;;;12.75;8.55;;;;;;;10.72;96.66;99612.63;4974904;28;20041;-90
2022/11/09 02:02:22;;;;;;;15.88;9.20;;;;;;;10.74;96.70;99608.84;4987089;28;20404;-92
2022/11/09 02:05:03;;;;;;;12.02;8.93;;;;;;;10.77;95.93;99608.53;4974007;28;20083;-90
2022/11/09 02:07:30;;;;;;;13.60;8.02;;;;;;;10.77;96.18;99616.50;5001401;28;20145;-90
2022/11/09 02:10:05;;;;;;;19.38;9.48;;;;;;;10.74;96.65;99606.19;4992500;28;20496;-91
2022/11/09 02:12:33;;;;;;;15.38;9.05;;;;;;;10.76;96.94;99606.03;4942391;28;20362;-90
2022/11/09 02:15:02;;;;;;;14.65;9.18;;;;;;;10.76;96.75;99614.84;4973553;28;20134;-92
2022/11/09 02:17:31;;;;;;;13.13;8.93;;;;;;;10.77;96.81;99608.53;4966879;28;20103;-91
2022/11/09 02:19:58;;;;;;;14.57;8.65;;;;;;;10.77;97.06;99611.19;4996126;28;20049;-91
2022/11/09 02:22:27;;;;;;;13.05;8.32;;;;;;;10.75;97.40;99610.50;4972078;28;20073;-89
2022/11/09 02:24:54;;;;;;;12.00;8.73;;;;;;;10.77;97.35;99607.72;4990700;28;20041;-90
2022/11/09 02:27:23;;;;;;;13.60;9.13;;;;;;;10.76;97.16;99596.25;4972500;28;20062;-89
2022/11/09 02:29:51;;;;;;;12.73;8.73;;;;;;;10.81;96.79;99601.97;4981911;28;20409;-90
2022/11/09 02:32:21;;;;;;;14.85;7.72;;;;;;;10.79;97.17;99600.44;4990780;28;20393;-89
2022/11/09 02:34:48;;;;;;;17.30;8.38;;;;;;;10.79;97.03;99593.31;4992368;28;20533;-90
2022/11/09 02:37:28;;;;;;;14.57;8.40;;;;;;;10.76;97.32;99609.53;4989787;28;20397;-89
2022/11/09 02:39:56;;;;;;;13.38;7.88;;;;;;;10.79;97.59;99603.09;4986422;28;20060;-88
2022/11/09 02:42:24;;;;;;;12.75;7.85;;;;;;;10.80;97.38;99596.81;5002035;28;20120;-87
2022/11/09 02:44:54;;;;;;;13.68;8.55;;;;;;;10.79;97.65;99589.81;4987619;28;20455;-88
2022/11/09 02:47:21;;;;;;;13.35;7.70;;;;;;;10.78;97.93;99588.97;5004503;28;20351;-89
2022/11/09 02:49:49;;;;;;;13.52;8.00;;;;;;;10.81;97.65;99590.50;4990306;28;20052;-88
2022/11/09 02:52:16;;;;;;;12.93;7.82;;;;;;;10.80;98.28;99591.50;4961833;28;20104;-88
2022/11/09 02:54:44;;;;;;;12.45;7.70;;;;;;;10.78;98.29;99588.13;5023004;28;20496;-88
2022/11/09 02:57:13;;;;;;;13.38;7.93;;;;;;;10.79;97.93;99587.16;4961633;28;20053;-88
2022/11/09 02:59:41;;;;;;;13.45;8.52;;;;;;;10.78;97.66;99586.31;4991612;28;20049;-88
2022/11/09 03:02:09;;;;;;;11.95;7.95;;;;;;;10.79;97.85;99592.47;4972426;28;20037;-88
2022/11/09 03:04:38;;;;;;;12.45;8.45;;;;;;;10.80;97.59;99589.66;5007131;28;20100;-87
2022/11/09 03:07:06;;;;;;;17.17;8.90;;;;;;;10.80;97.74;99594.97;5014090;28;20041;-87
2022/11/09 03:09:33;;;;;;;15.20;8.73;;;;;;;10.80;97.90;99600.28;4999839;28;20053;-88
2022/11/09 03:12:27;;;;;;;13.80;8.57;;;;;;;10.78;98.61;99602.25;4978003;28;20053;-88
2022/11/09 03:14:48;;;;;;;12.90;8.18;;;;;;;10.78;98.34;99607.56;5000958;28;20455;-88
2022/11/09 03:17:16;;;;;;;12.05;7.65;;;;;;;10.77;98.50;99605.06;4994252;28;20045;-89
2022/11/09 03:19:43;;;;;;;10.88;8.40;;;;;;;10.78;98.38;99615.53;4985488;28;20072;-89
2022/11/09 03:22:12;;;;;;;14.80;9.18;;;;;;;10.79;98.49;99611.06;4984133;28;20045;-90
2022/11/09 03:24:39;;;;;;;12.15;8.68;;;;;;;10.78;98.60;99612.03;4995531;28;20050;-88
2022/11/09 03:27:06;;;;;;;14.35;8.48;;;;;;;10.80;98.31;99612.72;4978232;28;20057;-88
2022/11/09 03:29:33;;;;;;;14.10;8.57;;;;;;;10.80;98.41;99610.06;4978366;28;20041;-87
2022/11/09 03:36:14;;;;;;;10.75;7.97;;;;;;;10.77;98.54;99610.38;4972071;28;20480;-88
2022/11/09 03:38:40;;;;;;;12.80;8.30;;;;;;;10.76;98.53;99606.88;4990317;28;20416;-88
2022/11/09 03:41:07;;;;;;;13.45;8.63;;;;;;;10.79;98.49;99611.06;4979952;28;20050;-88
2022/11/09 03:43:35;;;;;;;12.85;8.90;;;;;;;10.80;98.55;99608.25;4998289;28;20120;-88
2022/11/09 03:46:02;;;;;;;15.32;8.23;;;;;;;10.81;98.45;99609.94;5003577;28;20049;-88
2022/11/09 03:48:29;;;;;;;11.02;8.00;;;;;;;10.83;98.94;99605.31;4974915;28;20056;-87
2022/11/09 03:50:56;;;;;;;12.88;7.90;;;;;;;10.81;98.74;99604.63;5022415;28;20045;-87
2022/11/09 03:53:22;;;;;;;13.15;8.25;;;;;;;10.83;98.49;99594.69;4995382;28;20057;-87
2022/11/09 03:55:49;;;;;;;12.65;8.77;;;;;;;10.84;98.58;99599.03;4996428;28;20049;-88
2022/11/09 03:58:16;;;;;;;12.68;8.40;;;;;;;10.86;98.10;99597.06;4994821;28;20049;-87
2022/11/09 04:00:43;;;;;;;15.98;8.48;;;;;;;10.87;98.36;99589.94;5010114;28;20087;-87
2022/11/09 04:03:09;;;;;;;11.05;8.15;;;;;;;10.88;98.38;99588.94;5010728;28;20638;-88
2022/11/09 04:05:36;;;;;;;12.75;8.93;;;;;;;10.90;98.47;99588.81;5010344;28;20073;-87
2022/11/09 04:08:04;;;;;;;12.07;8.10;;;;;;;10.89;98.58;99589.78;4995906;28;20137;-87
2022/11/09 04:10:31;;;;;;;13.55;8.00;;;;;;;10.86;98.86;99591.75;4974242;28;20060;-88
2022/11/09 04:12:57;;;;;;;13.98;8.05;;;;;;;10.85;98.79;99590.06;4997422;28;20038;-88
2022/11/09 04:15:24;;;;;;;13.68;8.80;;;;;;;10.84;99.28;99593.72;4995662;28;20045;-88
2022/11/09 04:17:59;;;;;;;13.85;8.27;;;;;;;10.77;99.38;99597.94;4995507;28;20419;-88
2022/11/09 04:20:27;;;;;;;11.50;8.75;;;;;;;10.81;99.66;99617.06;4975401;28;20065;-89
2022/11/09 04:22:56;;;;;;;15.88;9.48;;;;;;;10.80;99.55;99616.22;4992991;28;20049;-88
2022/11/09 04:25:24;;;;;;;12.95;9.32;;;;;;;10.81;99.78;99622.38;5011101;28;20045;-87
2022/11/09 04:27:58;;;;;;;11.45;8.82;;;;;;;10.79;99.41;99630.50;4989872;28;20409;-88
2022/11/09 04:30:29;;;;;;;12.13;8.95;;;;;;;10.86;98.92;99626.28;5014995;28;20042;-88
2022/11/09 04:32:56;;;;;;;10.95;7.65;;;;;;;10.84;99.22;99620.28;5005578;28;20053;-88
2022/11/09 04:35:24;;;;;;;8.60;7.10;;;;;;;10.85;99.29;99626.44;4957442;28;20502;-88
2022/11/09 04:37:58;;;;;;;11.18;8.00;;;;;;;10.79;99.39;99617.22;5004302;28;20092;-88
2022/11/09 04:40:27;;;;;;;13.48;8.40;;;;;;;10.84;99.08;99632.72;4991408;28;20041;-89
2022/11/09 04:42:54;;;;;;;12.57;8.50;;;;;;;10.85;99.20;99637.06;5023564;28;20103;-88
2022/11/09 04:45:21;;;;;;;15.45;8.82;;;;;;;10.88;98.79;99641.25;4981284;28;20038;-87
2022/11/09 04:47:50;;;;;;;13.43;8.15;;;;;;;10.90;98.92;99641.94;4931188;28;20110;-88
2022/11/09 04:50:37;;;;;;;12.68;8.48;;;;;;;10.91;98.79;99632.97;4954668;28;20164;-87
2022/11/09 04:53:06;;;;;;;21.58;9.23;;;;;;;10.90;98.83;99629.50;4986425;28;20042;-89
2022/11/09 04:55:45;;;;;;;14.05;8.25;;;;;;;10.90;99.00;99623.34;4981623;28;20042;-87
2022/11/09 04:58:11;;;;;;;12.57;8.23;;;;;;;10.92;98.72;99619.56;5005202;28;20497;-86
2022/11/09 05:00:39;;;;;;;12.50;8.88;;;;;;;10.92;99.21;99614.25;5014962;28;20046;-86
2022/11/09 05:03:06;;;;;;;15.55;9.38;;;;;;;10.93;99.02;99615.09;5022170;28;20136;-85
2022/11/09 05:05:34;;;;;;;12.95;8.82;;;;;;;10.93;99.06;99613.25;5007253;28;20045;-87
2022/11/09 05:08:01;;;;;;;11.27;8.60;;;;;;;10.92;99.23;99606.28;4991404;28;20053;-86
2022/11/09 05:10:28;;;;;;;13.65;8.77;;;;;;;10.91;99.27;99603.75;5009803;28;20484;-86
2022/11/09 05:13:02;;;;;;;15.63;9.10;;;;;;;10.90;99.06;99602.94;4986424;28;20034;-87
2022/11/09 05:15:29;;;;;;;14.63;8.82;;;;;;;10.93;99.14;99607.94;5005637;28;20487;-89
2022/11/09 05:17:56;;;;;;;12.32;8.00;;;;;;;10.91;99.40;99604.59;4989566;28;20117;-87
2022/11/09 05:20:23;;;;;;;13.63;8.82;;;;;;;10.92;99.29;99605.44;4975141;28;20057;-87
2022/11/09 05:25:35;;;;;;;12.00;8.55;;;;;;;10.90;99.45;99608.25;4953390;28;20099;-87
2022/11/09 05:28:03;;;;;;;13.63;8.55;;;;;;;10.90;99.39;99605.59;5023809;28;20053;-87
2022/11/09 05:30:30;;;;;;;19.73;10.07;;;;;;;10.88;99.48;99610.19;4980123;28;20053;-88
2022/11/09 05:32:56;;;;;;;13.85;9.20;;;;;;;10.88;99.32;99610.19;4958618;28;20045;-87
2022/11/09 05:35:23;;;;;;;14.32;9.18;;;;;;;10.89;99.24;99617.19;4964618;28;20129;-87
2022/11/09 05:37:51;;;;;;;14.80;8.68;;;;;;;10.90;99.56;99615.38;4943980;28;20050;-87
2022/11/09 05:40:20;;;;;;;11.85;8.30;;;;;;;10.92;99.12;99626.72;4989737;28;20581;-87
2022/11/09 05:42:46;;;;;;;15.63;8.88;;;;;;;10.91;99.07;99623.19;4975075;28;20099;-87
2022/11/09 05:45:15;;;;;;;11.63;8.23;;;;;;;10.91;99.34;99631.16;4995137;28;20045;-87
2022/11/09 05:48:03;;;;;;;13.45;8.70;;;;;;;10.91;99.65;99617.88;4974359;28;20044;-85
2022/11/09 05:50:30;;;;;;;11.43;8.60;;;;;;;10.90;100.00;99623.34;5009347;28;20449;-79
2022/11/09 05:53:11;;;;;;;11.00;8.23;;;;;;;10.90;99.81;99629.50;4988618;28;20540;-80
2022/11/09 05:55:38;;;;;;;15.05;9.38;;;;;;;10.94;99.46;99619.41;5008846;28;20065;-81
2022/11/09 05:58:05;;;;;;;15.70;9.88;;;;;;;10.95;99.35;99613.97;4994584;28;20049;-79
2022/11/09 06:00:32;;;;;;;15.75;9.90;;;;;;;10.96;99.43;99614.78;5004098;28;20045;-80
2022/11/09 06:03:06;;;;;;;12.98;9.27;;;;;;;10.92;99.29;99611.59;5012514;28;20101;-80
2022/11/09 06:05:35;;;;;;;14.13;9.35;;;;;;;10.95;99.78;99611.31;4973790;28;20535;-79
2022/11/09 06:08:12;;;;;;;15.43;10.20;;;;;;;10.89;99.63;99622.50;5000378;28;20103;-79
2022/11/09 06:10:39;;;;;;;13.57;9.85;;;;;;;10.95;99.73;99621.94;4968067;28;20046;-79
2022/11/09 06:13:06;;;;;;;15.35;9.23;;;;;;;10.95;99.61;99626.41;5016143;28;20095;-79
2022/11/09 06:15:33;;;;;;;14.98;9.48;;;;;;;10.96;99.53;99633.38;5001312;28;20132;-79
2022/11/09 06:18:00;;;;;;;16.45;9.25;;;;;;;10.99;99.52;99638.41;5013094;28;20132;-79
2022/11/09 06:20:27;;;;;;;13.50;10.15;;;;;;;10.99;99.73;99636.63;4986339;28;20042;-80
2022/11/09 06:23:01;;;;;;;15.23;9.63;;;;;;;10.99;99.50;99654.34;4975773;28;20103;-80
2022/11/09 06:25:31;;;;;;;13.02;9.23;;;;;;;11.00;99.77;99658.69;4987789;28;20048;-79
2022/11/09 06:27:58;;;;;;;14.65;9.82;;;;;;;11.01;99.98;99676.31;5003336;28;20037;-79
2022/11/09 06:30:25;;;;;;;12.95;9.48;;;;;;;11.00;100.00;99675.47;5024749;28;20045;-79
2022/11/09 06:32:57;;;;;;;17.35;10.55;;;;;;;10.98;100.00;99682.75;4989645;28;20103;-79
2022/11/09 06:35:24;;;;;;;14.43;9.60;;;;;;;10.98;100.00;99671.28;4977854;28;20056;-80
2022/11/09 06:37:58;;;;;;;17.30;9.90;;;;;;;10.97;99.87;99670.44;5024274;28;20058;-79
2022/11/09 06:40:25;;;;;;;15.13;9.63;;;;;;;11.01;100.00;99665.69;4988094;28;20366;-80
2022/11/09 06:42:52;;;;;;;16.23;9.18;;;;;;;11.02;99.78;99670.03;4993473;28;20128;-79
2022/11/09 06:45:18;;;;;;;16.83;9.80;;;;;;;11.04;100.00;99686.66;5030474;28;20073;-79
2022/11/09 06:47:45;;;;;;;15.02;10.65;;;;;;;11.05;99.83;99685.69;5030248;28;20045;-79
2022/11/09 06:50:12;;;;;;;17.00;11.35;;;;;;;11.07;99.97;99699.66;4996448;28;20132;-79
2022/11/09 06:52:39;;;;;;;17.05;10.32;;;;;;;11.06;99.83;99697.97;5014503;28;20125;-80
2022/11/09 06:55:07;;;;;;;15.63;10.40;;;;;;;11.06;99.91;99704.13;5023269;28;20522;-81
2022/11/09 06:57:33;;;;;;;17.27;10.90;;;;;;;11.07;99.87;99704.97;5007148;28;20038;-79
2022/11/09 07:00:00;;;;;;;19.75;12.07;;;;;;;11.07;100.00;99700.50;5028890;28;20099;-79
2022/11/09 07:02:28;;;;;;;19.98;11.90;;;;;;;11.07;100.00;99689.88;4996231;28;20125;-79
2022/11/09 07:04:55;;;;;;;20.38;10.43;;;;;;;11.09;99.93;99687.06;4995563;28;20119;-80
2022/11/09 07:07:22;;;;;;;14.95;10.23;;;;;;;11.10;99.94;99687.91;5005070;28;20141;-79
2022/11/09 07:09:54;;;;;;;20.55;10.45;;;;;;;11.11;100.00;99690.41;4982943;28;20560;-79
2022/11/09 07:12:21;;;;;;;13.98;9.60;;;;;;;11.13;99.94;99706.22;4993004;28;20075;-79
2022/11/09 07:14:48;;;;;;;14.60;10.07;;;;;;;11.14;100.00;99699.91;5024421;28;20048;-79
2022/11/09 07:17:14;;;;;;;14.07;11.13;;;;;;;11.15;100.00;99698.97;4993130;28;20484;-79
2022/11/09 07:19:41;;;;;;;17.42;10.90;;;;;;;11.16;99.96;99698.78;5012872;28;20061;-79
2022/11/09 07:22:08;;;;;;;15.82;11.15;;;;;;;11.16;100.00;99693.47;5013398;28;20045;-79
2022/11/09 07:24:34;;;;;;;16.42;10.40;;;;;;;11.17;100.00;99697.84;4992923;28;20048;-80
2022/11/09 07:27:01;;;;;;;16.73;10.35;;;;;;;11.17;100.00;99697.84;5013713;28;20049;-79
2022/11/09 07:29:28;;;;;;;15.15;9.18;;;;;;;11.18;100.00;99701.31;5009102;28;20489;-79
2022/11/09 07:31:54;;;;;;;16.13;9.20;;;;;;;11.20;99.95;99700.19;5010660;28;20493;-79
2022/11/09 07:34:21;;;;;;;15.13;9.18;;;;;;;11.21;100.00;99693.88;5032697;28;20493;-80
2022/11/09 07:36:48;;;;;;;11.93;8.90;;;;;;;11.23;100.00;99694.59;5023770;28;20076;-79
2022/11/09 07:39:14;;;;;;;13.65;10.18;;;;;;;11.24;100.00;99698.09;5007592;28;20073;-79
2022/11/09 07:41:41;;;;;;;12.52;9.35;;;;;;;11.23;100.00;99699.91;4996112;28;20892;-79
2022/11/09 07:44:08;;;;;;;11.73;8.57;;;;;;;11.25;99.90;99694.47;5008820;28;20045;-79
2022/11/09 07:46:34;;;;;;;14.07;9.52;;;;;;;11.26;100.00;99693.47;5028452;28;20041;-80
2022/11/09 07:49:01;;;;;;;13.45;9.13;;;;;;;11.26;100.00;99686.31;5013585;28;20041;-79
2022/11/09 07:51:28;;;;;;;14.90;9.88;;;;;;;11.27;100.00;99685.34;5028776;28;20046;-79
2022/11/09 07:53:55;;;;;;;10.88;7.97;;;;;;;11.28;100.00;99681.72;5011983;28;20084;-79
2022/11/09 07:56:21;;;;;;;12.27;8.13;;;;;;;11.30;100.00;99697.53;5004657;28;20091;-80
2022/11/09 07:58:49;;;;;;;11.55;8.25;;;;;;;11.29;100.00;99683.38;5007855;28;20106;-79
2022/11/09 08:01:15;;;;;;;9.55;7.90;;;;;;;11.31;100.00;99685.91;5024545;28;20096;-80
2022/11/09 08:03:42;;;;;;;10.45;7.78;;;;;;;11.32;100.00;99684.91;5027044;28;20477;-79
2022/11/09 08:06:09;;;;;;;11.13;7.22;;;;;;;11.32;100.00;99682.25;5004116;28;20045;-80
2022/11/09 08:08:42;;;;;;;10.73;6.78;;;;;;;11.34;100.00;99684.78;5011610;28;20048;-79
2022/11/09 08:11:09;;;;;;;8.63;6.97;;;;;;;11.35;100.00;99689.09;5029841;28;20455;-79
2022/11/09 08:13:36;;;;;;;10.52;7.13;;;;;;;11.37;100.00;99695.97;4993305;28;20095;-79
2022/11/09 08:16:03;;;;;;;11.82;7.55;;;;;;;11.38;100.00;99696.81;5022463;28;20116;-79
2022/11/09 08:18:29;;;;;;;13.15;8.70;;;;;;;11.40;100.00;99694.84;4988231;28;20073;-79
2022/11/09 08:20:56;;;;;;;11.25;7.55;;;;;;;11.41;100.00;99692.03;5029911;28;20045;-79
2022/11/09 08:23:23;;;;;;;11.00;7.68;;;;;;;11.42;100.00;99692.84;5024311;28;20049;-79
2022/11/09 08:25:50;;;;;;;12.07;7.63;;;;;;;11.43;100.00;99683.91;5014034;28;20069;-79
2022/11/09 08:28:16;;;;;;;14.57;9.13;;;;;;;11.44;100.00;99675.78;5010736;28;20045;-80
2022/11/09 08:30:44;;;;;;;16.10;11.48;;;;;;;11.44;100.00;99659.81;5010234;28;20048;-80
2022/11/09 08:33:12;;;;;;;19.60;13.00;;;;;;;11.45;100.00;99664.19;4993588;28;20083;-80
2022/11/09 08:35:38;;;;;;;16.75;10.48;;;;;;;11.45;100.00;99674.81;5003928;28;20068;-81
2022/11/09 08:38:05;;;;;;;13.50;9.60;;;;;;;11.47;100.00;99685.28;4995435;28;20040;-79
2022/11/09 08:40:32;;;;;;;13.35;9.75;;;;;;;11.48;100.00;99684.31;4996158;28;20041;-79
2022/11/09 08:43:04;;;;;;;15.68;8.68;;;;;;;11.48;100.00;99679.84;5008780;28;20098;-79
2022/11/09 08:45:32;;;;;;;15.40;9.70;;;;;;;11.50;100.00;99688.50;4990066;28;20680;-81
2022/11/09 08:48:00;;;;;;;13.23;9.25;;;;;;;11.52;100.00;99688.34;4991011;28;20107;-79
2022/11/09 08:50:27;;;;;;;13.13;8.38;;;;;;;11.54;100.00;99699.69;4976478;28;20048;-79
2022/11/09 08:52:54;;;;;;;11.85;8.38;;;;;;;11.55;100.00;99709.34;5023361;28;20065;-80
2022/11/09 08:55:21;;;;;;;12.80;8.27;;;;;;;11.57;100.00;99722.50;4991682;28;20533;-79
2022/11/09 08:57:48;;;;;;;11.73;8.32;;;;;;;11.59;100.00;99725.84;5005746;28;20468;-79
2022/11/09 09:00:15;;;;;;;11.57;8.95;;;;;;;11.60;100.00;99733.69;5026720;28;20045;-79
2022/11/09 09:02:41;;;;;;;13.55;8.43;;;;;;;11.62;100.00;99733.53;4990565;28;20508;-79
2022/11/09 09:05:08;;;;;;;11.77;8.25;;;;;;;11.64;100.00;99723.59;5007744;28;20055;-80
2022/11/09 09:07:35;;;;;;;15.05;9.10;;;;;;;11.66;100.00;99725.13;5022477;28;20095;-79
2022/11/09 09:10:03;;;;;;;14.82;8.20;;;;;;;11.67;100.00;99736.59;5026604;28;20037;-80
2022/11/09 09:12:30;;;;;;;12.75;8.10;;;;;;;11.69;100.00;99737.28;5009178;28;20045;-79
2022/11/09 09:14:57;;;;;;;12.93;8.02;;;;;;;11.70;100.00;99738.94;5011877;28;20064;-79
2022/11/09 09:17:24;;;;;;;13.27;8.77;;;;;;;11.71;100.00;99738.81;5007331;28;20041;-79
2022/11/09 09:19:50;;;;;;;16.02;10.43;;;;;;;11.74;100.00;99737.69;5010219;28;20083;-79
2022/11/09 09:22:17;;;;;;;17.67;9.82;;;;;;;11.76;100.00;99738.38;4990375;28;20493;-80
2022/11/09 09:24:44;;;;;;;18.98;11.15;;;;;;;11.78;100.00;99736.44;5023976;28;20133;-79
2022/11/09 09:27:10;;;;;;;11.25;8.57;;;;;;;11.79;100.00;99730.09;5015624;28;20443;-79
2022/11/09 09:29:37;;;;;;;13.50;8.95;;;;;;;11.82;100.00;99728.97;4988033;28;20441;-79
2022/11/09 09:32:04;;;;;;;13.23;8.02;;;;;;;11.84;100.00;99737.66;5007890;28;20137;-79
2022/11/09 09:34:30;;;;;;;12.23;7.50;;;;;;;11.86;100.00;99733.91;5005712;28;20099;-79
2022/11/09 09:36:57;;;;;;;8.52;6.50;;;;;;;11.88;100.00;99731.06;5019157;28;20080;-80
2022/11/09 09:39:24;;;;;;;10.68;7.40;;;;;;;11.90;100.00;99740.59;5002349;28;20091;-79
2022/11/09 09:41:55;;;;;;;8.32;6.35;;;;;;;11.92;100.00;99738.63;5026310;28;20520;-79
2022/11/09 09:44:26;;;;;;;11.10;6.50;;;;;;;11.93;100.00;99744.78;4992194;28;20037;-79
2022/11/09 09:47:21;;;;;;;7.90;6.20;;;;;;;11.92;100.00;99743.94;4989226;28;20470;-79
2022/11/09 09:49:58;;;;;;;12.27;7.40;;;;;;;12.00;100.00;99745.03;4943528;28;20047;-79
2022/11/09 09:52:32;;;;;;;8.13;6.55;;;;;;;12.03;100.00;99736.75;4993694;28;20067;-79
2022/11/09 09:55:18;;;;;;;7.78;6.15;;;;;;;12.03;100.00;99734.94;5013633;28;20064;-80
2022/11/09 09:57:49;;;;;;;7.82;5.80;;;;;;;12.13;100.00;99745.53;4989644;28;20049;-79
2022/11/09 10:00:24;;;;;;;7.20;4.75;;;;;;;12.13;100.00;99748.19;4993219;28;20053;-80
2022/11/09 10:02:51;;;;;;;6.00;4.07;;;;;;;12.22;100.00;99746.47;4985650;28;20058;-79
2022/11/09 10:05:19;;;;;;;4.85;4.35;;;;;;;12.24;100.00;99739.19;4991726;28;20095;-79
2022/11/09 10:07:50;;;;;;;6.35;4.65;;;;;;;12.28;100.00;99746.72;4974444;28;20041;-79
2022/11/09 10:10:27;;;;;;;6.35;4.60;;;;;;;12.26;100.00;99743.38;4991145;28;20049;-79
2022/11/09 10:13:08;;;;;;;5.38;4.00;;;;;;;12.35;100.00;99734.47;5008707;28;20497;-80
2022/11/09 10:16:00;;;;;;;5.63;4.53;;;;;;;12.30;100.00;99735.91;5011960;28;20138;-79
2022/11/09 10:18:36;;;;;;;8.82;4.82;;;;;;;12.39;100.00;99735.03;4954752;28;20057;-79
2022/11/09 10:21:10;;;;;;;8.20;5.45;;;;;;;12.40;100.00;99733.19;4981530;28;20398;-80
2022/11/09 10:23:46;;;;;;;11.02;5.43;;;;;;;12.41;100.00;99738.38;5000900;28;20045;-80
2022/11/09 10:26:24;;;;;;;8.32;5.78;;;;;;;12.43;100.00;99731.06;4995401;28;21374;-79
2022/11/09 10:29:07;;;;;;;7.40;5.53;;;;;;;12.41;100.00;99726.88;5016986;28;20045;-79
2022/11/09 10:31:43;;;;;;;6.50;4.10;;;;;;;12.46;100.00;99729.94;4964528;28;20045;-80
2022/11/09 10:34:25;;;;;;;7.05;5.20;;;;;;;12.42;100.00;99723.25;5005523;28;20045;-79
2022/11/09 10:37:00;;;;;;;6.07;4.50;;;;;;;12.45;100.00;99706.97;4971730;28;20115;-80
2022/11/09 10:39:34;;;;;;;6.70;4.68;;;;;;;12.49;100.00;99709.19;4981189;28;20494;-79
2022/11/09 10:42:20;;;;;;;4.80;4.20;;;;;;;12.50;100.00;99710.84;4991591;28;20127;-80
2022/11/09 10:45:13;;;;;;;7.70;5.05;;;;;;;12.53;100.00;99715.84;4981799;28;20998;-79
2022/11/09 10:47:59;;;;;;;11.25;4.78;;;;;;;12.56;100.00;99710.22;4972512;28;20103;-79
2022/11/09 10:50:46;;;;;;;6.45;4.57;;;;;;;12.58;100.00;99713.56;4978873;28;20045;-80
2022/11/09 10:53:32;;;;;;;9.18;5.25;;;;;;;12.60;100.00;99706.28;4995216;28;20669;-79
2022/11/09 10:56:19;;;;;;;5.18;3.75;;;;;;;12.62;100.00;99716.78;4975276;28;20041;-80
2022/11/09 10:59:33;;;;;;;8.43;4.50;;;;;;;12.55;100.00;99721.88;4983616;28;20069;-80
2022/11/09 11:02:24;;;;;;;10.02;5.38;;;;;;;12.57;100.00;99717.25;4951921;28;20649;-82
2022/11/09 11:05:11;;;;;;;9.57;5.03;;;;;;;12.62;100.00;99721.25;4983741;28;20050;-80
2022/11/09 11:07:57;;;;;;;6.20;4.78;;;;;;;12.63;100.00;99720.28;4983003;28;20140;-80
2022/11/09 11:10:43;;;;;;;8.15;5.50;;;;;;;12.64;100.00;99709.47;4998904;28;20136;-80
2022/11/09 11:13:28;;;;;;;8.55;5.47;;;;;;;12.65;100.00;99716.47;4987061;28;20042;-80
2022/11/09 11:16:28;;;;;;;6.80;4.53;;;;;;;12.66;100.00;99709.31;4972857;28;20045;-80
2022/11/09 11:19:33;;;;;;;7.63;4.82;;;;;;;12.57;100.00;99698.59;4957728;28;20037;-80
2022/11/09 11:22:23;;;;;;;8.32;4.80;;;;;;;12.66;100.00;99691.50;4975980;28;20056;-80
2022/11/09 11:25:20;;;;;;;8.07;5.03;;;;;;;12.62;100.00;99694.63;4985672;28;20048;-80
2022/11/09 11:28:25;;;;;;;6.20;4.57;;;;;;;12.60;100.00;99687.63;4980213;28;20040;-80
2022/11/09 11:31:16;;;;;;;6.47;4.40;;;;;;;12.67;100.00;99689.66;4987524;28;20496;-79
2022/11/09 11:34:07;;;;;;;8.65;4.97;;;;;;;12.70;100.00;99692.06;4970031;28;20057;-80
2022/11/09 11:37:21;;;;;;;8.43;5.15;;;;;;;12.67;100.00;99692.34;4992125;28;20062;-80
2022/11/09 11:40:31;;;;;;;6.50;5.28;;;;;;;12.66;100.00;99701.31;4945235;28;20509;-80
2022/11/09 11:43:23;;;;;;;10.82;5.32;;;;;;;12.67;100.00;99701.19;4940854;28;20044;-80
2022/11/09 11:46:31;;;;;;;7.80;4.97;;;;;;;12.62;100.00;99686.63;4991741;28;20393;-80